sensor_id;sensor_type;location;lat;lon;timestamp;P1;durP1;ratioP1;P2;durP2;ratioP2
24787;SDS011;12883;52.662;5.196;2024-03-06T00:00:09;34.57;;;34.37;;
24787;SDS011;12883;52.662;5.196;2024-03-06T00:02:35;34.17;;;33.97;;
24787;SDS011;12883;52.662;5.196;2024-03-06T00:05:01;35.00;;;34.80;;
24787;SDS011;12883;52.662;5.196;2024-03-06T00:07:26;34.30;;;34.10;;
24787;SDS011;12883;52.662;5.196;2024-03-06T00:09:52;33.43;;;33.23;;
24787;SDS011;12883;52.662;5.196;2024-03-06T00:12:18;33.87;;;33.67;;
24787;SDS011;12883;52.662;5.196;2024-03-06T00:14:43;35.80;;;35.60;;
24787;SDS011;12883;52.662;5.196;2024-03-06T00:17:09;33.80;;;33.60;;
24787;SDS011;12883;52.662;5.196;2024-03-06T00:19:34;34.40;;;34.20;;
24787;SDS011;12883;52.662;5.196;2024-03-06T00:22:00;29.77;;;29.57;;
24787;SDS011;12883;52.662;5.196;2024-03-06T00:24:26;28.83;;;28.73;;
24787;SDS011;12883;52.662;5.196;2024-03-06T00:26:51;30.07;;;29.87;;
24787;SDS011;12883;52.662;5.196;2024-03-06T00:29:17;28.67;;;28.57;;
24787;SDS011;12883;52.662;5.196;2024-03-06T00:31:42;26.70;;;26.60;;
24787;SDS011;12883;52.662;5.196;2024-03-06T00:34:09;22.97;;;22.87;;
24787;SDS011;12883;52.662;5.196;2024-03-06T00:36:36;23.30;;;23.20;;
24787;SDS011;12883;52.662;5.196;2024-03-06T00:39:02;22.23;;;22.13;;
24787;SDS011;12883;52.662;5.196;2024-03-06T00:41:29;22.07;;;21.97;;
24787;SDS011;12883;52.662;5.196;2024-03-06T00:43:55;21.17;;;21.07;;
24787;SDS011;12883;52.662;5.196;2024-03-06T00:46:20;20.27;;;20.17;;
24787;SDS011;12883;52.662;5.196;2024-03-06T00:48:45;20.80;;;20.70;;
24787;SDS011;12883;52.662;5.196;2024-03-06T00:51:11;21.80;;;21.70;;
24787;SDS011;12883;52.662;5.196;2024-03-06T00:53:37;19.40;;;19.30;;
24787;SDS011;12883;52.662;5.196;2024-03-06T00:56:02;21.40;;;21.30;;
24787;SDS011;12883;52.662;5.196;2024-03-06T00:58:28;21.00;;;20.90;;
24787;SDS011;12883;52.662;5.196;2024-03-06T01:00:53;19.90;;;19.80;;
24787;SDS011;12883;52.662;5.196;2024-03-06T01:03:19;19.83;;;19.73;;
24787;SDS011;12883;52.662;5.196;2024-03-06T01:05:45;18.33;;;18.23;;
24787;SDS011;12883;52.662;5.196;2024-03-06T01:08:10;19.77;;;19.67;;
24787;SDS011;12883;52.662;5.196;2024-03-06T01:10:36;18.87;;;18.77;;
24787;SDS011;12883;52.662;5.196;2024-03-06T01:13:01;18.20;;;18.10;;
24787;SDS011;12883;52.662;5.196;2024-03-06T01:15:26;15.27;;;15.27;;
24787;SDS011;12883;52.662;5.196;2024-03-06T01:17:52;16.37;;;16.33;;
24787;SDS011;12883;52.662;5.196;2024-03-06T01:20:17;16.47;;;16.37;;
24787;SDS011;12883;52.662;5.196;2024-03-06T01:22:43;15.13;;;15.13;;
24787;SDS011;12883;52.662;5.196;2024-03-06T01:25:08;15.37;;;15.37;;
24787;SDS011;12883;52.662;5.196;2024-03-06T01:27:34;13.93;;;13.93;;
24787;SDS011;12883;52.662;5.196;2024-03-06T01:29:59;13.73;;;13.73;;
24787;SDS011;12883;52.662;5.196;2024-03-06T01:32:25;14.73;;;14.73;;
24787;SDS011;12883;52.662;5.196;2024-03-06T01:34:51;13.00;;;13.00;;
24787;SDS011;12883;52.662;5.196;2024-03-06T01:37:16;13.67;;;13.67;;
24787;SDS011;12883;52.662;5.196;2024-03-06T01:39:41;14.07;;;14.07;;
24787;SDS011;12883;52.662;5.196;2024-03-06T01:42:07;13.83;;;13.83;;
24787;SDS011;12883;52.662;5.196;2024-03-06T01:44:32;13.93;;;13.93;;
24787;SDS011;12883;52.662;5.196;2024-03-06T01:46:58;14.00;;;14.00;;
24787;SDS011;12883;52.662;5.196;2024-03-06T01:49:23;15.20;;;15.20;;
24787;SDS011;12883;52.662;5.196;2024-03-06T01:51:55;15.07;;;15.07;;
24787;SDS011;12883;52.662;5.196;2024-03-06T01:54:22;16.30;;;16.20;;
24787;SDS011;12883;52.662;5.196;2024-03-06T01:56:48;17.37;;;17.27;;
24787;SDS011;12883;52.662;5.196;2024-03-06T01:59:15;16.47;;;16.37;;
24787;SDS011;12883;52.662;5.196;2024-03-06T02:01:42;17.90;;;17.80;;
24787;SDS011;12883;52.662;5.196;2024-03-06T02:04:08;19.47;;;19.37;;
24787;SDS011;12883;52.662;5.196;2024-03-06T02:06:38;20.33;;;20.23;;
24787;SDS011;12883;52.662;5.196;2024-03-06T02:09:04;20.27;;;20.17;;
24787;SDS011;12883;52.662;5.196;2024-03-06T02:11:29;22.53;;;22.43;;
24787;SDS011;12883;52.662;5.196;2024-03-06T02:13:55;23.17;;;23.07;;
24787;SDS011;12883;52.662;5.196;2024-03-06T02:16:21;23.60;;;23.50;;
24787;SDS011;12883;52.662;5.196;2024-03-06T02:18:55;24.00;;;23.90;;
24787;SDS011;12883;52.662;5.196;2024-03-06T02:21:25;24.97;;;24.87;;
24787;SDS011;12883;52.662;5.196;2024-03-06T02:23:50;26.50;;;26.40;;
24787;SDS011;12883;52.662;5.196;2024-03-06T02:26:17;26.17;;;26.07;;
24787;SDS011;12883;52.662;5.196;2024-03-06T02:28:46;29.10;;;29.00;;
24787;SDS011;12883;52.662;5.196;2024-03-06T02:31:12;28.80;;;28.70;;
24787;SDS011;12883;52.662;5.196;2024-03-06T02:33:38;27.93;;;27.83;;
24787;SDS011;12883;52.662;5.196;2024-03-06T02:36:04;29.90;;;29.73;;
24787;SDS011;12883;52.662;5.196;2024-03-06T02:38:30;32.80;;;32.60;;
24787;SDS011;12883;52.662;5.196;2024-03-06T02:40:56;32.67;;;32.47;;
24787;SDS011;12883;52.662;5.196;2024-03-06T02:43:21;33.70;;;33.50;;
24787;SDS011;12883;52.662;5.196;2024-03-06T02:45:46;31.10;;;31.00;;
24787;SDS011;12883;52.662;5.196;2024-03-06T02:48:12;29.43;;;29.33;;
24787;SDS011;12883;52.662;5.196;2024-03-06T02:50:37;26.17;;;26.07;;
24787;SDS011;12883;52.662;5.196;2024-03-06T02:53:02;21.27;;;21.17;;
24787;SDS011;12883;52.662;5.196;2024-03-06T02:55:28;22.77;;;22.67;;
24787;SDS011;12883;52.662;5.196;2024-03-06T02:57:53;20.03;;;19.93;;
24787;SDS011;12883;52.662;5.196;2024-03-06T03:00:18;21.10;;;21.00;;
24787;SDS011;12883;52.662;5.196;2024-03-06T03:02:44;22.73;;;22.63;;
24787;SDS011;12883;52.662;5.196;2024-03-06T03:05:09;25.20;;;25.10;;
24787;SDS011;12883;52.662;5.196;2024-03-06T03:07:34;24.67;;;24.57;;
24787;SDS011;12883;52.662;5.196;2024-03-06T03:10:00;26.80;;;26.70;;
24787;SDS011;12883;52.662;5.196;2024-03-06T03:12:25;29.50;;;29.30;;
24787;SDS011;12883;52.662;5.196;2024-03-06T03:14:51;30.93;;;30.73;;
24787;SDS011;12883;52.662;5.196;2024-03-06T03:17:17;35.03;;;34.83;;
24787;SDS011;12883;52.662;5.196;2024-03-06T03:19:44;39.20;;;38.93;;
24787;SDS011;12883;52.662;5.196;2024-03-06T03:22:09;43.73;;;43.43;;
24787;SDS011;12883;52.662;5.196;2024-03-06T03:24:35;44.43;;;44.13;;
24787;SDS011;12883;52.662;5.196;2024-03-06T03:27:02;44.63;;;44.33;;
24787;SDS011;12883;52.662;5.196;2024-03-06T03:29:27;46.20;;;45.90;;
24787;SDS011;12883;52.662;5.196;2024-03-06T03:31:53;46.77;;;46.47;;
24787;SDS011;12883;52.662;5.196;2024-03-06T03:34:18;48.17;;;47.87;;
24787;SDS011;12883;52.662;5.196;2024-03-06T03:36:46;49.90;;;49.60;;
24787;SDS011;12883;52.662;5.196;2024-03-06T03:39:12;51.07;;;50.77;;
24787;SDS011;12883;52.662;5.196;2024-03-06T03:41:44;50.70;;;50.40;;
24787;SDS011;12883;52.662;5.196;2024-03-06T03:44:14;48.23;;;47.93;;
24787;SDS011;12883;52.662;5.196;2024-03-06T03:46:40;49.43;;;49.13;;
24787;SDS011;12883;52.662;5.196;2024-03-06T03:49:05;50.60;;;50.30;;
24787;SDS011;12883;52.662;5.196;2024-03-06T03:51:31;49.83;;;49.53;;
24787;SDS011;12883;52.662;5.196;2024-03-06T03:53:56;47.43;;;47.13;;
24787;SDS011;12883;52.662;5.196;2024-03-06T03:56:21;48.07;;;47.77;;
24787;SDS011;12883;52.662;5.196;2024-03-06T03:58:47;48.57;;;48.27;;
24787;SDS011;12883;52.662;5.196;2024-03-06T04:01:12;48.77;;;48.47;;
24787;SDS011;12883;52.662;5.196;2024-03-06T04:03:38;50.00;;;49.70;;
24787;SDS011;12883;52.662;5.196;2024-03-06T04:06:03;52.00;;;51.60;;
24787;SDS011;12883;52.662;5.196;2024-03-06T04:08:29;55.67;;;55.27;;
24787;SDS011;12883;52.662;5.196;2024-03-06T04:10:54;56.87;;;56.47;;
24787;SDS011;12883;52.662;5.196;2024-03-06T04:13:19;56.63;;;56.23;;
24787;SDS011;12883;52.662;5.196;2024-03-06T04:15:45;56.07;;;55.67;;
24787;SDS011;12883;52.662;5.196;2024-03-06T04:18:11;58.63;;;58.23;;
24787;SDS011;12883;52.662;5.196;2024-03-06T04:20:37;58.90;;;58.50;;
24787;SDS011;12883;52.662;5.196;2024-03-06T04:23:02;59.87;;;59.47;;
24787;SDS011;12883;52.662;5.196;2024-03-06T04:25:27;60.30;;;59.90;;
24787;SDS011;12883;52.662;5.196;2024-03-06T04:27:53;58.90;;;58.50;;
24787;SDS011;12883;52.662;5.196;2024-03-06T04:30:18;58.10;;;57.70;;
24787;SDS011;12883;52.662;5.196;2024-03-06T04:32:44;60.40;;;60.00;;
24787;SDS011;12883;52.662;5.196;2024-03-06T04:35:09;59.33;;;58.93;;
24787;SDS011;12883;52.662;5.196;2024-03-06T04:37:35;61.20;;;60.80;;
24787;SDS011;12883;52.662;5.196;2024-03-06T04:40:01;60.30;;;59.90;;
24787;SDS011;12883;52.662;5.196;2024-03-06T04:42:27;58.83;;;58.43;;
24787;SDS011;12883;52.662;5.196;2024-03-06T04:44:53;60.63;;;60.23;;
24787;SDS011;12883;52.662;5.196;2024-03-06T04:47:18;57.10;;;56.70;;
24787;SDS011;12883;52.662;5.196;2024-03-06T04:49:44;57.23;;;56.83;;
24787;SDS011;12883;52.662;5.196;2024-03-06T04:52:09;54.60;;;54.30;;
24787;SDS011;12883;52.662;5.196;2024-03-06T04:54:35;58.27;;;57.87;;
24787;SDS011;12883;52.662;5.196;2024-03-06T04:57:00;60.40;;;60.00;;
24787;SDS011;12883;52.662;5.196;2024-03-06T04:59:25;57.67;;;57.27;;
24787;SDS011;12883;52.662;5.196;2024-03-06T05:01:51;59.70;;;59.30;;
24787;SDS011;12883;52.662;5.196;2024-03-06T05:04:17;59.90;;;59.50;;
24787;SDS011;12883;52.662;5.196;2024-03-06T05:06:42;59.73;;;59.33;;
24787;SDS011;12883;52.662;5.196;2024-03-06T05:09:08;60.70;;;60.30;;
24787;SDS011;12883;52.662;5.196;2024-03-06T05:11:36;61.80;;;61.40;;
24787;SDS011;12883;52.662;5.196;2024-03-06T05:14:03;57.67;;;57.27;;
24787;SDS011;12883;52.662;5.196;2024-03-06T05:16:29;60.60;;;60.20;;
24787;SDS011;12883;52.662;5.196;2024-03-06T05:18:54;59.77;;;59.37;;
24787;SDS011;12883;52.662;5.196;2024-03-06T05:21:19;61.10;;;60.70;;
24787;SDS011;12883;52.662;5.196;2024-03-06T05:23:47;61.00;;;60.60;;
24787;SDS011;12883;52.662;5.196;2024-03-06T05:26:12;61.77;;;61.27;;
24787;SDS011;12883;52.662;5.196;2024-03-06T05:28:38;60.20;;;59.80;;
24787;SDS011;12883;52.662;5.196;2024-03-06T05:31:13;65.10;;;64.60;;
24787;SDS011;12883;52.662;5.196;2024-03-06T05:33:42;60.93;;;60.53;;
24787;SDS011;12883;52.662;5.196;2024-03-06T05:36:07;60.63;;;60.23;;
24787;SDS011;12883;52.662;5.196;2024-03-06T05:38:32;64.30;;;63.80;;
24787;SDS011;12883;52.662;5.196;2024-03-06T05:40:58;63.70;;;63.20;;
24787;SDS011;12883;52.662;5.196;2024-03-06T05:43:23;62.90;;;62.40;;
24787;SDS011;12883;52.662;5.196;2024-03-06T05:45:48;64.90;;;64.40;;
24787;SDS011;12883;52.662;5.196;2024-03-06T05:48:14;64.43;;;63.93;;
24787;SDS011;12883;52.662;5.196;2024-03-06T05:50:39;61.57;;;61.10;;
24787;SDS011;12883;52.662;5.196;2024-03-06T05:53:05;63.67;;;63.17;;
24787;SDS011;12883;52.662;5.196;2024-03-06T05:55:30;61.73;;;61.23;;
24787;SDS011;12883;52.662;5.196;2024-03-06T05:57:56;61.17;;;60.67;;
24787;SDS011;12883;52.662;5.196;2024-03-06T06:00:21;62.07;;;61.57;;
24787;SDS011;12883;52.662;5.196;2024-03-06T06:02:47;62.67;;;62.17;;
24787;SDS011;12883;52.662;5.196;2024-03-06T06:05:12;64.33;;;63.83;;
24787;SDS011;12883;52.662;5.196;2024-03-06T06:07:38;65.67;;;65.17;;
24787;SDS011;12883;52.662;5.196;2024-03-06T06:10:04;65.17;;;64.67;;
24787;SDS011;12883;52.662;5.196;2024-03-06T06:12:33;64.70;;;64.20;;
24787;SDS011;12883;52.662;5.196;2024-03-06T06:14:58;65.37;;;64.87;;
24787;SDS011;12883;52.662;5.196;2024-03-06T06:17:24;66.80;;;66.30;;
24787;SDS011;12883;52.662;5.196;2024-03-06T06:19:49;70.13;;;69.60;;
24787;SDS011;12883;52.662;5.196;2024-03-06T06:22:14;71.33;;;70.73;;
24787;SDS011;12883;52.662;5.196;2024-03-06T06:24:40;69.57;;;68.97;;
24787;SDS011;12883;52.662;5.196;2024-03-06T06:27:06;71.07;;;70.47;;
24787;SDS011;12883;52.662;5.196;2024-03-06T06:29:31;76.17;;;75.47;;
24787;SDS011;12883;52.662;5.196;2024-03-06T06:31:56;78.97;;;78.27;;
24787;SDS011;12883;52.662;5.196;2024-03-06T06:34:22;80.10;;;79.40;;
24787;SDS011;12883;52.662;5.196;2024-03-06T06:36:48;81.00;;;80.30;;
24787;SDS011;12883;52.662;5.196;2024-03-06T06:39:13;80.93;;;80.23;;
24787;SDS011;12883;52.662;5.196;2024-03-06T06:41:38;78.40;;;77.70;;
24787;SDS011;12883;52.662;5.196;2024-03-06T06:44:04;81.47;;;80.77;;
24787;SDS011;12883;52.662;5.196;2024-03-06T06:46:29;80.33;;;79.63;;
24787;SDS011;12883;52.662;5.196;2024-03-06T06:48:54;82.20;;;81.50;;
24787;SDS011;12883;52.662;5.196;2024-03-06T06:51:20;82.60;;;81.80;;
24787;SDS011;12883;52.662;5.196;2024-03-06T06:53:46;80.80;;;80.10;;
24787;SDS011;12883;52.662;5.196;2024-03-06T06:56:11;76.83;;;76.20;;
24787;SDS011;12883;52.662;5.196;2024-03-06T06:58:36;76.57;;;75.87;;
24787;SDS011;12883;52.662;5.196;2024-03-06T07:01:02;75.97;;;75.37;;
24787;SDS011;12883;52.662;5.196;2024-03-06T07:03:29;75.83;;;75.23;;
24787;SDS011;12883;52.662;5.196;2024-03-06T07:05:55;71.77;;;71.20;;
24787;SDS011;12883;52.662;5.196;2024-03-06T07:08:22;75.20;;;74.53;;
24787;SDS011;12883;52.662;5.196;2024-03-06T07:10:47;78.17;;;77.57;;
24787;SDS011;12883;52.662;5.196;2024-03-06T07:13:13;77.37;;;76.77;;
24787;SDS011;12883;52.662;5.196;2024-03-06T07:15:38;74.57;;;73.87;;
24787;SDS011;12883;52.662;5.196;2024-03-06T07:18:04;70.27;;;69.67;;
24787;SDS011;12883;52.662;5.196;2024-03-06T07:20:29;70.93;;;70.43;;
24787;SDS011;12883;52.662;5.196;2024-03-06T07:22:56;69.40;;;68.80;;
24787;SDS011;12883;52.662;5.196;2024-03-06T07:25:22;73.57;;;72.97;;
24787;SDS011;12883;52.662;5.196;2024-03-06T07:27:48;73.00;;;72.40;;
24787;SDS011;12883;52.662;5.196;2024-03-06T07:30:13;74.90;;;74.30;;
24787;SDS011;12883;52.662;5.196;2024-03-06T07:32:39;77.23;;;76.53;;
24787;SDS011;12883;52.662;5.196;2024-03-06T07:35:05;72.33;;;71.73;;
24787;SDS011;12883;52.662;5.196;2024-03-06T07:37:31;71.60;;;71.00;;
24787;SDS011;12883;52.662;5.196;2024-03-06T07:39:56;73.80;;;73.20;;
24787;SDS011;12883;52.662;5.196;2024-03-06T07:42:23;79.40;;;78.70;;
24787;SDS011;12883;52.662;5.196;2024-03-06T07:44:48;79.37;;;78.67;;
24787;SDS011;12883;52.662;5.196;2024-03-06T07:47:15;79.33;;;78.63;;
24787;SDS011;12883;52.662;5.196;2024-03-06T07:49:40;79.33;;;78.63;;
24787;SDS011;12883;52.662;5.196;2024-03-06T07:52:05;79.20;;;78.50;;
24787;SDS011;12883;52.662;5.196;2024-03-06T07:54:31;80.20;;;79.50;;
24787;SDS011;12883;52.662;5.196;2024-03-06T07:56:58;76.17;;;75.57;;
24787;SDS011;12883;52.662;5.196;2024-03-06T07:59:23;77.20;;;76.60;;
24787;SDS011;12883;52.662;5.196;2024-03-06T08:01:48;76.70;;;76.00;;
24787;SDS011;12883;52.662;5.196;2024-03-06T08:04:14;73.37;;;72.77;;
24787;SDS011;12883;52.662;5.196;2024-03-06T08:06:39;68.93;;;68.33;;
24787;SDS011;12883;52.662;5.196;2024-03-06T08:09:04;71.37;;;70.77;;
24787;SDS011;12883;52.662;5.196;2024-03-06T08:11:30;74.13;;;73.53;;
24787;SDS011;12883;52.662;5.196;2024-03-06T08:13:58;72.53;;;71.93;;
24787;SDS011;12883;52.662;5.196;2024-03-06T08:16:24;70.20;;;69.67;;
24787;SDS011;12883;52.662;5.196;2024-03-06T08:18:50;71.07;;;70.47;;
24787;SDS011;12883;52.662;5.196;2024-03-06T08:21:15;73.53;;;72.93;;
24787;SDS011;12883;52.662;5.196;2024-03-06T08:23:41;72.57;;;71.97;;
24787;SDS011;12883;52.662;5.196;2024-03-06T08:26:07;72.17;;;71.57;;
24787;SDS011;12883;52.662;5.196;2024-03-06T08:28:32;71.93;;;71.43;;
24787;SDS011;12883;52.662;5.196;2024-03-06T08:30:59;76.37;;;75.87;;
24787;SDS011;12883;52.662;5.196;2024-03-06T08:33:25;68.93;;;68.43;;
24787;SDS011;12883;52.662;5.196;2024-03-06T08:35:50;70.70;;;70.20;;
24787;SDS011;12883;52.662;5.196;2024-03-06T08:38:16;69.97;;;69.47;;
24787;SDS011;12883;52.662;5.196;2024-03-06T08:40:42;68.27;;;67.87;;
24787;SDS011;12883;52.662;5.196;2024-03-06T08:43:10;66.03;;;65.53;;
24787;SDS011;12883;52.662;5.196;2024-03-06T08:45:37;64.17;;;63.77;;
24787;SDS011;12883;52.662;5.196;2024-03-06T08:48:03;65.13;;;64.73;;
24787;SDS011;12883;52.662;5.196;2024-03-06T08:50:28;62.67;;;62.27;;
24787;SDS011;12883;52.662;5.196;2024-03-06T08:52:54;56.53;;;56.13;;
24787;SDS011;12883;52.662;5.196;2024-03-06T08:55:19;55.17;;;54.77;;
24787;SDS011;12883;52.662;5.196;2024-03-06T08:57:44;54.30;;;53.90;;
24787;SDS011;12883;52.662;5.196;2024-03-06T09:00:10;52.47;;;52.17;;
24787;SDS011;12883;52.662;5.196;2024-03-06T09:02:39;50.87;;;50.57;;
24787;SDS011;12883;52.662;5.196;2024-03-06T09:05:05;50.67;;;50.37;;
24787;SDS011;12883;52.662;5.196;2024-03-06T09:07:31;50.87;;;50.57;;
24787;SDS011;12883;52.662;5.196;2024-03-06T09:10:02;49.17;;;48.87;;
24787;SDS011;12883;52.662;5.196;2024-03-06T09:12:28;51.67;;;51.37;;
24787;SDS011;12883;52.662;5.196;2024-03-06T09:14:53;50.17;;;49.87;;
24787;SDS011;12883;52.662;5.196;2024-03-06T09:17:19;51.43;;;51.13;;
24787;SDS011;12883;52.662;5.196;2024-03-06T09:19:44;51.67;;;51.37;;
24787;SDS011;12883;52.662;5.196;2024-03-06T09:22:09;51.83;;;51.53;;
24787;SDS011;12883;52.662;5.196;2024-03-06T09:24:35;49.50;;;49.20;;
24787;SDS011;12883;52.662;5.196;2024-03-06T09:27:04;50.37;;;50.07;;
24787;SDS011;12883;52.662;5.196;2024-03-06T09:29:29;48.03;;;47.73;;
24787;SDS011;12883;52.662;5.196;2024-03-06T09:31:54;48.53;;;48.23;;
24787;SDS011;12883;52.662;5.196;2024-03-06T09:34:20;49.00;;;48.70;;
24787;SDS011;12883;52.662;5.196;2024-03-06T09:36:47;50.77;;;50.47;;
24787;SDS011;12883;52.662;5.196;2024-03-06T09:39:14;47.83;;;47.53;;
24787;SDS011;12883;52.662;5.196;2024-03-06T09:41:48;47.77;;;47.47;;
24787;SDS011;12883;52.662;5.196;2024-03-06T09:44:14;48.40;;;48.10;;
24787;SDS011;12883;52.662;5.196;2024-03-06T09:46:43;44.97;;;44.67;;
24787;SDS011;12883;52.662;5.196;2024-03-06T09:49:09;43.53;;;43.23;;
24787;SDS011;12883;52.662;5.196;2024-03-06T09:51:36;43.53;;;43.33;;
24787;SDS011;12883;52.662;5.196;2024-03-06T09:54:06;43.30;;;43.00;;
24787;SDS011;12883;52.662;5.196;2024-03-06T09:56:33;44.00;;;43.80;;
24787;SDS011;12883;52.662;5.196;2024-03-06T09:58:58;42.33;;;42.13;;
24787;SDS011;12883;52.662;5.196;2024-03-06T10:01:24;45.33;;;45.03;;
24787;SDS011;12883;52.662;5.196;2024-03-06T10:03:51;45.80;;;45.50;;
24787;SDS011;12883;52.662;5.196;2024-03-06T10:06:16;44.93;;;44.63;;
24787;SDS011;12883;52.662;5.196;2024-03-06T10:08:42;46.43;;;46.13;;
24787;SDS011;12883;52.662;5.196;2024-03-06T10:11:10;47.13;;;46.83;;
24787;SDS011;12883;52.662;5.196;2024-03-06T10:13:36;45.10;;;44.83;;
24787;SDS011;12883;52.662;5.196;2024-03-06T10:16:03;47.60;;;47.30;;
24787;SDS011;12883;52.662;5.196;2024-03-06T10:18:33;47.23;;;46.93;;
24787;SDS011;12883;52.662;5.196;2024-03-06T10:20:59;46.37;;;46.07;;
24787;SDS011;12883;52.662;5.196;2024-03-06T10:23:25;46.07;;;45.77;;
24787;SDS011;12883;52.662;5.196;2024-03-06T10:25:53;45.17;;;44.90;;
24787;SDS011;12883;52.662;5.196;2024-03-06T10:28:19;44.57;;;44.33;;
24787;SDS011;12883;52.662;5.196;2024-03-06T10:30:47;42.97;;;42.73;;
24787;SDS011;12883;52.662;5.196;2024-03-06T10:33:13;42.60;;;42.40;;
24787;SDS011;12883;52.662;5.196;2024-03-06T10:35:41;42.43;;;42.23;;
24787;SDS011;12883;52.662;5.196;2024-03-06T10:38:09;39.47;;;39.27;;
24787;SDS011;12883;52.662;5.196;2024-03-06T10:40:36;40.47;;;40.27;;
24787;SDS011;12883;52.662;5.196;2024-03-06T10:43:03;40.10;;;39.90;;
24787;SDS011;12883;52.662;5.196;2024-03-06T10:45:37;37.37;;;37.17;;
24787;SDS011;12883;52.662;5.196;2024-03-06T10:48:09;37.33;;;37.13;;
24787;SDS011;12883;52.662;5.196;2024-03-06T10:50:40;37.70;;;37.50;;
24787;SDS011;12883;52.662;5.196;2024-03-06T10:53:16;38.70;;;38.50;;
24787;SDS011;12883;52.662;5.196;2024-03-06T10:55:43;37.60;;;37.40;;
24787;SDS011;12883;52.662;5.196;2024-03-06T10:58:11;39.00;;;38.80;;
24787;SDS011;12883;52.662;5.196;2024-03-06T11:00:38;37.93;;;37.73;;
24787;SDS011;12883;52.662;5.196;2024-03-06T11:03:09;38.70;;;38.50;;
24787;SDS011;12883;52.662;5.196;2024-03-06T11:05:38;38.33;;;38.13;;
24787;SDS011;12883;52.662;5.196;2024-03-06T11:08:08;35.30;;;35.10;;
24787;SDS011;12883;52.662;5.196;2024-03-06T11:10:36;35.07;;;34.87;;
24787;SDS011;12883;52.662;5.196;2024-03-06T11:13:25;35.93;;;35.73;;
24787;SDS011;12883;52.662;5.196;2024-03-06T11:15:51;39.03;;;38.83;;
24787;SDS011;12883;52.662;5.196;2024-03-06T11:23:32;39.13;;;38.93;;
24787;SDS011;12883;52.662;5.196;2024-03-06T11:26:04;39.00;;;38.80;;
24787;SDS011;12883;52.662;5.196;2024-03-06T11:28:31;34.67;;;34.47;;
24787;SDS011;12883;52.662;5.196;2024-03-06T11:36:22;38.43;;;38.23;;
24787;SDS011;12883;52.662;5.196;2024-03-06T11:41:22;39.07;;;38.87;;
24787;SDS011;12883;52.662;5.196;2024-03-06T11:43:48;38.93;;;38.73;;
24787;SDS011;12883;52.662;5.196;2024-03-06T11:46:16;37.90;;;37.70;;
24787;SDS011;12883;52.662;5.196;2024-03-06T11:48:42;38.00;;;37.80;;
24787;SDS011;12883;52.662;5.196;2024-03-06T11:51:08;39.23;;;39.03;;
24787;SDS011;12883;52.662;5.196;2024-03-06T11:53:34;37.13;;;36.93;;
24787;SDS011;12883;52.662;5.196;2024-03-06T11:56:05;39.03;;;38.83;;
24787;SDS011;12883;52.662;5.196;2024-03-06T11:58:32;38.03;;;37.83;;
24787;SDS011;12883;52.662;5.196;2024-03-06T12:00:58;35.90;;;35.70;;
24787;SDS011;12883;52.662;5.196;2024-03-06T12:03:23;37.53;;;37.33;;
24787;SDS011;12883;52.662;5.196;2024-03-06T12:05:50;35.87;;;35.67;;
24787;SDS011;12883;52.662;5.196;2024-03-06T12:08:16;34.10;;;33.90;;
24787;SDS011;12883;52.662;5.196;2024-03-06T12:10:41;34.90;;;34.70;;
24787;SDS011;12883;52.662;5.196;2024-03-06T12:13:07;35.83;;;35.63;;
24787;SDS011;12883;52.662;5.196;2024-03-06T12:15:32;34.83;;;34.63;;
24787;SDS011;12883;52.662;5.196;2024-03-06T12:17:58;34.63;;;34.43;;
24787;SDS011;12883;52.662;5.196;2024-03-06T12:20:24;34.27;;;34.07;;
24787;SDS011;12883;52.662;5.196;2024-03-06T12:22:51;34.27;;;34.07;;
24787;SDS011;12883;52.662;5.196;2024-03-06T12:25:20;34.57;;;34.40;;
24787;SDS011;12883;52.662;5.196;2024-03-06T12:27:50;34.80;;;34.60;;
24787;SDS011;12883;52.662;5.196;2024-03-06T12:30:17;33.97;;;33.87;;
24787;SDS011;12883;52.662;5.196;2024-03-06T12:32:44;33.93;;;33.83;;
24787;SDS011;12883;52.662;5.196;2024-03-06T12:35:10;35.23;;;35.03;;
24787;SDS011;12883;52.662;5.196;2024-03-06T12:37:35;34.13;;;33.93;;
24787;SDS011;12883;52.662;5.196;2024-03-06T12:40:01;32.37;;;32.27;;
24787;SDS011;12883;52.662;5.196;2024-03-06T12:42:29;32.90;;;32.77;;
24787;SDS011;12883;52.662;5.196;2024-03-06T12:44:54;34.23;;;34.03;;
24787;SDS011;12883;52.662;5.196;2024-03-06T12:47:20;32.43;;;32.23;;
24787;SDS011;12883;52.662;5.196;2024-03-06T12:49:45;33.70;;;33.50;;
24787;SDS011;12883;52.662;5.196;2024-03-06T12:52:11;34.80;;;34.60;;
24787;SDS011;12883;52.662;5.196;2024-03-06T12:54:36;32.73;;;32.60;;
24787;SDS011;12883;52.662;5.196;2024-03-06T12:57:01;32.97;;;32.87;;
24787;SDS011;12883;52.662;5.196;2024-03-06T12:59:27;32.60;;;32.50;;
24787;SDS011;12883;52.662;5.196;2024-03-06T13:01:53;32.40;;;32.20;;
24787;SDS011;12883;52.662;5.196;2024-03-06T13:04:19;34.67;;;34.47;;
24787;SDS011;12883;52.662;5.196;2024-03-06T13:06:44;34.80;;;34.60;;
24787;SDS011;12883;52.662;5.196;2024-03-06T13:09:10;32.60;;;32.40;;
24787;SDS011;12883;52.662;5.196;2024-03-06T13:11:36;33.77;;;33.57;;
24787;SDS011;12883;52.662;5.196;2024-03-06T13:14:01;32.60;;;32.50;;
24787;SDS011;12883;52.662;5.196;2024-03-06T13:16:26;34.10;;;33.90;;
24787;SDS011;12883;52.662;5.196;2024-03-06T13:18:52;33.57;;;33.37;;
24787;SDS011;12883;52.662;5.196;2024-03-06T13:21:21;35.00;;;34.80;;
24787;SDS011;12883;52.662;5.196;2024-03-06T13:23:47;35.23;;;35.03;;
24787;SDS011;12883;52.662;5.196;2024-03-06T13:26:12;33.17;;;32.97;;
24787;SDS011;12883;52.662;5.196;2024-03-06T13:28:38;35.13;;;34.93;;
24787;SDS011;12883;52.662;5.196;2024-03-06T13:31:04;34.67;;;34.47;;
24787;SDS011;12883;52.662;5.196;2024-03-06T13:33:32;35.20;;;35.00;;
24787;SDS011;12883;52.662;5.196;2024-03-06T13:35:58;34.83;;;34.63;;
24787;SDS011;12883;52.662;5.196;2024-03-06T13:38:23;34.47;;;34.27;;
24787;SDS011;12883;52.662;5.196;2024-03-06T13:40:49;34.53;;;34.33;;
24787;SDS011;12883;52.662;5.196;2024-03-06T13:43:14;34.80;;;34.60;;
24787;SDS011;12883;52.662;5.196;2024-03-06T13:45:48;35.50;;;35.30;;
24787;SDS011;12883;52.662;5.196;2024-03-06T13:48:14;34.47;;;34.27;;
24787;SDS011;12883;52.662;5.196;2024-03-06T13:50:42;33.97;;;33.77;;
24787;SDS011;12883;52.662;5.196;2024-03-06T13:53:09;32.90;;;32.77;;
24787;SDS011;12883;52.662;5.196;2024-03-06T13:55:35;33.03;;;32.83;;
24787;SDS011;12883;52.662;5.196;2024-03-06T13:58:00;33.43;;;33.23;;
24787;SDS011;12883;52.662;5.196;2024-03-06T14:00:26;33.07;;;32.87;;
24787;SDS011;12883;52.662;5.196;2024-03-06T14:02:52;32.50;;;32.30;;
24787;SDS011;12883;52.662;5.196;2024-03-06T14:05:17;31.90;;;31.80;;
24787;SDS011;12883;52.662;5.196;2024-03-06T14:07:44;33.03;;;32.83;;
24787;SDS011;12883;52.662;5.196;2024-03-06T14:10:10;31.93;;;31.83;;
24787;SDS011;12883;52.662;5.196;2024-03-06T14:12:36;32.57;;;32.37;;
24787;SDS011;12883;52.662;5.196;2024-03-06T14:15:04;32.27;;;32.17;;
24787;SDS011;12883;52.662;5.196;2024-03-06T14:17:40;30.37;;;30.27;;
24787;SDS011;12883;52.662;5.196;2024-03-06T14:20:05;29.63;;;29.53;;
24787;SDS011;12883;52.662;5.196;2024-03-06T14:22:31;30.40;;;30.30;;
24787;SDS011;12883;52.662;5.196;2024-03-06T14:24:57;30.43;;;30.30;;
24787;SDS011;12883;52.662;5.196;2024-03-06T14:27:22;31.00;;;30.80;;